Time;durP1;ratioP1;P1;durP2;ratioP2;P2;SDS_P1;SDS_P2;PMS_P1;PMS_P2;Temp;Humidity;BMP_temperature;BMP_pressure;BME280_temperature;BME280_humidity;BME280_pressure;Samples;Min_cycle;Max_cycle;Signal;HPM_P1;HPM_P2
2021/05/07 00:01:10;;;;;;;7.75;2.72;;;;;;;;;;5068611;28;20056;-80
2021/05/07 00:03:37;;;;;;;5.53;2.35;;;;;;;;;;5069134;28;20025;-73
2021/05/07 00:06:04;;;;;;;3.92;2.22;;;;;;;;;;5053997;28;20053;-78
2021/05/07 00:08:32;;;;;;;5.63;2.38;;;;;;;;;;5053902;28;20021;-81
2021/05/07 00:10:59;;;;;;;4.27;2.00;;;;;;;;;;5053420;28;20078;-77
2021/05/07 00:13:25;;;;;;;4.68;2.10;;;;;;;;;;5053775;28;20055;-82
2021/05/07 00:15:51;;;;;;;5.45;2.20;;;;;;;;;;5053362;28;20025;-81
2021/05/07 00:18:18;;;;;;;5.93;2.17;;;;;;;;;;5053348;28;20028;-76
2021/05/07 00:20:44;;;;;;;3.63;2.00;;;;;;;;;;5053272;28;20032;-72
2021/05/07 00:23:10;;;;;;;5.55;2.40;;;;;;;;;;5053289;28;20036;-80
2021/05/07 00:25:36;;;;;;;4.75;2.40;;;;;;;;;;5053536;28;20492;-78
2021/05/07 00:28:06;;;;;;;6.50;2.63;;;;;;;;;;5053266;28;20033;-74
2021/05/07 00:30:33;;;;;;;3.90;2.03;;;;;;;;;;5053170;28;20096;-79
2021/05/07 00:32:59;;;;;;;6.18;2.30;;;;;;;;;;5067911;28;20049;-73
2021/05/07 00:35:25;;;;;;;4.70;2.28;;;;;;;;;;5068504;28;20025;-80
2021/05/07 00:37:52;;;;;;;5.85;2.30;;;;;;;;;;5053077;28;20477;-78
2021/05/07 00:40:18;;;;;;;6.10;2.35;;;;;;;;;;5068544;28;20378;-77
2021/05/07 00:42:44;;;;;;;4.93;2.38;;;;;;;;;;5068472;28;20021;-79
2021/05/07 00:45:11;;;;;;;5.47;1.95;;;;;;;;;;5052889;28;20032;-77
2021/05/07 00:47:39;;;;;;;4.65;2.30;;;;;;;;;;5052829;28;20082;-76
2021/05/07 00:50:06;;;;;;;5.97;2.40;;;;;;;;;;5052763;28;20086;-72
2021/05/07 00:52:33;;;;;;;4.70;2.15;;;;;;;;;;5067841;28;20044;-77
2021/05/07 00:55:00;;;;;;;4.95;2.17;;;;;;;;;;5051731;28;20032;-79
2021/05/07 00:57:26;;;;;;;5.32;2.40;;;;;;;;;;5052809;28;20493;-76
2021/05/07 00:59:53;;;;;;;6.50;2.67;;;;;;;;;;5052634;28;20064;-73
2021/05/07 01:02:19;;;;;;;5.57;2.67;;;;;;;;;;5067382;28;20496;-77
2021/05/07 01:04:45;;;;;;;6.05;2.65;;;;;;;;;;5052668;28;20082;-72
2021/05/07 01:07:11;;;;;;;5.82;2.47;;;;;;;;;;5052495;28;20125;-72
2021/05/07 01:09:37;;;;;;;6.00;2.35;;;;;;;;;;5067017;28;20029;-71
2021/05/07 01:12:03;;;;;;;4.45;2.55;;;;;;;;;;5053556;28;20033;-76
2021/05/07 01:14:29;;;;;;;6.75;2.40;;;;;;;;;;5054040;28;20435;-80
2021/05/07 01:16:55;;;;;;;4.53;2.30;;;;;;;;;;5052358;28;20091;-71
2021/05/07 01:19:21;;;;;;;4.40;2.20;;;;;;;;;;5052293;28;20025;-75
2021/05/07 01:21:47;;;;;;;5.75;2.42;;;;;;;;;;5052342;28;20025;-75
2021/05/07 01:24:13;;;;;;;5.63;2.17;;;;;;;;;;5067663;28;20029;-79
2021/05/07 01:26:41;;;;;;;5.75;2.55;;;;;;;;;;5052416;28;20027;-70
2021/05/07 01:29:11;;;;;;;6.80;2.40;;;;;;;;;;5052184;28;20054;-79
2021/05/07 01:31:37;;;;;;;7.03;2.17;;;;;;;;;;5051553;28;20053;-80
2021/05/07 01:34:04;;;;;;;4.63;2.30;;;;;;;;;;5067303;28;20051;-72
2021/05/07 01:36:31;;;;;;;4.57;2.40;;;;;;;;;;5052151;28;20067;-80
2021/05/07 01:38:57;;;;;;;9.85;2.55;;;;;;;;;;5052232;28;20037;-78
2021/05/07 01:41:23;;;;;;;4.90;2.22;;;;;;;;;;5051819;28;20029;-76
2021/05/07 01:43:49;;;;;;;5.63;2.38;;;;;;;;;;5051940;28;20055;-70
2021/05/07 01:46:15;;;;;;;6.82;2.30;;;;;;;;;;5067111;28;20064;-78
2021/05/07 01:48:41;;;;;;;6.10;2.10;;;;;;;;;;5051802;28;20025;-79
2021/05/07 01:51:08;;;;;;;4.68;2.20;;;;;;;;;;5066917;28;20061;-78
2021/05/07 01:53:35;;;;;;;6.57;2.17;;;;;;;;;;5051535;28;20035;-79
2021/05/07 01:56:01;;;;;;;5.95;1.98;;;;;;;;;;5066753;28;20037;-78
2021/05/07 01:58:27;;;;;;;5.22;1.98;;;;;;;;;;5066527;28;20037;-70
2021/05/07 02:00:54;;;;;;;6.72;2.22;;;;;;;;;;5051779;28;20126;-72
2021/05/07 02:03:20;;;;;;;4.65;1.88;;;;;;;;;;5066657;28;20046;-73
2021/05/07 02:05:46;;;;;;;3.90;1.90;;;;;;;;;;5051396;28;20029;-71
2021/05/07 02:08:12;;;;;;;4.82;1.80;;;;;;;;;;5051490;28;20100;-70
2021/05/07 02:10:38;;;;;;;6.65;1.85;;;;;;;;;;5066561;28;20032;-76
2021/05/07 02:13:09;;;;;;;4.20;1.70;;;;;;;;;;5051217;28;20044;-72
2021/05/07 02:15:35;;;;;;;5.40;1.75;;;;;;;;;;5051569;28;20028;-76
2021/05/07 02:18:01;;;;;;;3.15;1.60;;;;;;;;;;5051268;28;20476;-70
2021/05/07 02:20:28;;;;;;;4.30;1.83;;;;;;;;;;5066540;28;20139;-72
2021/05/07 02:22:55;;;;;;;4.45;1.77;;;;;;;;;;5051148;28;20029;-69
2021/05/07 02:25:22;;;;;;;6.22;1.80;;;;;;;;;;5066088;28;20384;-72
2021/05/07 02:27:49;;;;;;;4.45;1.50;;;;;;;;;;5046172;28;20082;-72
2021/05/07 02:30:18;;;;;;;3.58;1.58;;;;;;;;;;5050242;28;20539;-71
2021/05/07 02:32:44;;;;;;;3.22;1.58;;;;;;;;;;5050407;28;20064;-71
2021/05/07 02:35:10;;;;;;;5.03;1.67;;;;;;;;;;5066352;28;20044;-69
2021/05/07 02:37:36;;;;;;;8.07;1.90;;;;;;;;;;5051263;28;20035;-73
2021/05/07 02:40:04;;;;;;;3.25;1.58;;;;;;;;;;5066394;28;20089;-76
2021/05/07 02:42:30;;;;;;;6.10;2.20;;;;;;;;;;5051163;28;20054;-71
2021/05/07 02:44:56;;;;;;;8.27;1.73;;;;;;;;;;5051082;28;20477;-70
2021/05/07 02:47:22;;;;;;;4.90;1.80;;;;;;;;;;5050912;28;20033;-80
2021/05/07 02:49:49;;;;;;;3.67;1.60;;;;;;;;;;5051039;28;20036;-72
2021/05/07 02:52:15;;;;;;;5.70;1.80;;;;;;;;;;5050811;28;20033;-76
2021/05/07 02:54:41;;;;;;;5.82;1.90;;;;;;;;;;5051244;28;20112;-77
2021/05/07 02:57:07;;;;;;;3.65;1.58;;;;;;;;;;5066353;28;20032;-78
2021/05/07 02:59:33;;;;;;;6.45;1.92;;;;;;;;;;5066397;28;20116;-69
2021/05/07 03:01:59;;;;;;;6.05;1.73;;;;;;;;;;5065821;28;20051;-71
2021/05/07 03:04:25;;;;;;;4.13;1.70;;;;;;;;;;5051000;28;20025;-73
2021/05/07 03:06:52;;;;;;;5.07;2.20;;;;;;;;;;5050719;28;20025;-75
2021/05/07 03:09:18;;;;;;;4.95;2.10;;;;;;;;;;5050931;28;20032;-77
2021/05/07 03:11:44;;;;;;;2.88;1.65;;;;;;;;;;5050646;28;20029;-73
2021/05/07 03:14:11;;;;;;;4.03;1.80;;;;;;;;;;5066210;28;20025;-78
2021/05/07 03:16:37;;;;;;;3.60;1.67;;;;;;;;;;5050949;28;20075;-70
2021/05/07 03:19:03;;;;;;;7.22;1.98;;;;;;;;;;5052597;28;20063;-78
2021/05/07 03:21:29;;;;;;;3.95;1.77;;;;;;;;;;5069665;28;20021;-78
2021/05/07 03:23:55;;;;;;;5.20;1.60;;;;;;;;;;5069466;28;20044;-78
2021/05/07 03:26:22;;;;;;;4.40;1.73;;;;;;;;;;5069465;28;20151;-70
2021/05/07 03:28:48;;;;;;;3.42;1.52;;;;;;;;;;5054429;28;20032;-73
2021/05/07 03:31:14;;;;;;;7.15;1.80;;;;;;;;;;5053938;28;20485;-77
2021/05/07 03:33:40;;;;;;;4.28;1.98;;;;;;;;;;5054200;28;20475;-70
2021/05/07 03:36:06;;;;;;;4.07;1.70;;;;;;;;;;5054473;28;20079;-79
2021/05/07 03:38:32;;;;;;;3.70;1.85;;;;;;;;;;5054274;28;20040;-78
2021/05/07 03:40:58;;;;;;;5.50;2.00;;;;;;;;;;5053943;28;20056;-79
2021/05/07 03:43:24;;;;;;;3.47;1.48;;;;;;;;;;5069053;28;20094;-72
2021/05/07 03:45:51;;;;;;;5.93;1.88;;;;;;;;;;5054113;28;20025;-79
2021/05/07 03:48:17;;;;;;;3.63;1.45;;;;;;;;;;5053541;28;20107;-72
2021/05/07 03:50:44;;;;;;;6.45;1.65;;;;;;;;;;5053981;28;20082;-76
2021/05/07 03:53:13;;;;;;;5.32;1.52;;;;;;;;;;5069480;28;20043;-75
2021/05/07 03:55:39;;;;;;;6.43;1.70;;;;;;;;;;5053936;28;20025;-78
2021/05/07 03:58:06;;;;;;;6.35;1.92;;;;;;;;;;5053712;28;20083;-78
2021/05/07 04:00:32;;;;;;;3.25;1.63;;;;;;;;;;5069098;28;20025;-77
2021/05/07 04:02:59;;;;;;;4.38;1.92;;;;;;;;;;5054084;28;20068;-78
2021/05/07 04:05:25;;;;;;;4.75;1.60;;;;;;;;;;5069292;28;20480;-69
2021/05/07 04:08:26;;;;;;;4.88;1.80;;;;;;;;;;5068867;28;20030;-73
2021/05/07 04:10:46;;;;;;;6.78;2.00;;;;;;;;;;5051554;28;20523;-74
2021/05/07 04:15:38;;;;;;;7.18;1.42;;;;;;;;;;5053632;28;20427;-70
2021/05/07 04:18:04;;;;;;;4.15;1.63;;;;;;;;;;5068899;28;20016;-76
2021/05/07 04:20:30;;;;;;;3.85;1.45;;;;;;;;;;5053565;28;20032;-70
2021/05/07 04:22:56;;;;;;;2.92;1.40;;;;;;;;;;5053440;28;20060;-74
2021/05/07 04:25:22;;;;;;;3.78;1.55;;;;;;;;;;5068641;28;20114;-72
2021/05/07 04:27:49;;;;;;;5.75;1.67;;;;;;;;;;5068473;28;20376;-72
2021/05/07 04:30:15;;;;;;;3.40;1.42;;;;;;;;;;5053178;28;20048;-73
2021/05/07 04:32:41;;;;;;;4.18;1.73;;;;;;;;;;5052949;28;20508;-74
2021/05/07 04:35:08;;;;;;;7.38;1.80;;;;;;;;;;5053195;28;20021;-71
2021/05/07 04:37:34;;;;;;;5.13;1.88;;;;;;;;;;5053203;28;20040;-74
2021/05/07 04:40:00;;;;;;;6.03;2.20;;;;;;;;;;5052919;28;20032;-73
2021/05/07 04:42:26;;;;;;;4.70;1.67;;;;;;;;;;5052830;28;20073;-74
2021/05/07 04:44:52;;;;;;;3.67;1.90;;;;;;;;;;5052973;28;20017;-73
2021/05/07 04:47:18;;;;;;;7.90;2.00;;;;;;;;;;5052621;28;20118;-69
2021/05/07 04:49:45;;;;;;;5.00;1.88;;;;;;;;;;5053044;28;20100;-71
2021/05/07 04:52:11;;;;;;;5.82;2.03;;;;;;;;;;5068334;28;20037;-70
2021/05/07 04:54:37;;;;;;;5.55;2.50;;;;;;;;;;5052895;28;20031;-71
2021/05/07 04:57:03;;;;;;;5.43;2.35;;;;;;;;;;5052819;28;20032;-78
2021/05/07 04:59:29;;;;;;;7.70;2.50;;;;;;;;;;5052431;28;20071;-76
2021/05/07 05:01:55;;;;;;;7.35;2.40;;;;;;;;;;5052109;28;20456;-78
2021/05/07 05:04:21;;;;;;;6.03;2.55;;;;;;;;;;5052678;28;20031;-72
2021/05/07 05:06:47;;;;;;;6.93;2.50;;;;;;;;;;5068043;28;20119;-72
2021/05/07 05:09:13;;;;;;;8.38;2.28;;;;;;;;;;5052415;28;20078;-73
2021/05/07 05:11:39;;;;;;;8.18;2.55;;;;;;;;;;5052275;28;20032;-70
2021/05/07 05:14:05;;;;;;;7.63;2.05;;;;;;;;;;5067388;28;20127;-79
2021/05/07 05:16:31;;;;;;;7.15;2.50;;;;;;;;;;5052334;28;20024;-71
2021/05/07 05:18:57;;;;;;;5.55;2.10;;;;;;;;;;5052325;28;20051;-70
2021/05/07 05:21:23;;;;;;;4.32;2.08;;;;;;;;;;5067532;28;20143;-74
2021/05/07 05:23:50;;;;;;;5.85;2.00;;;;;;;;;;5052084;28;20029;-78
2021/05/07 05:26:16;;;;;;;5.88;2.28;;;;;;;;;;5052026;28;20017;-71
2021/05/07 05:28:42;;;;;;;5.32;2.10;;;;;;;;;;5051947;28;20086;-77
2021/05/07 05:31:08;;;;;;;5.47;2.10;;;;;;;;;;5051706;28;20028;-75
2021/05/07 05:33:35;;;;;;;5.13;1.95;;;;;;;;;;5066620;28;20048;-72
2021/05/07 05:36:01;;;;;;;2.63;1.60;;;;;;;;;;5067280;28;20020;-73
2021/05/07 05:38:27;;;;;;;7.63;2.28;;;;;;;;;;5051459;28;20059;-70
2021/05/07 05:40:53;;;;;;;4.70;1.90;;;;;;;;;;5051391;28;20017;-73
2021/05/07 05:43:19;;;;;;;9.18;1.83;;;;;;;;;;5066774;28;20021;-72
2021/05/07 05:45:45;;;;;;;5.70;1.85;;;;;;;;;;5066772;28;20354;-77
2021/05/07 05:48:17;;;;;;;9.60;2.03;;;;;;;;;;5066763;28;20465;-75
2021/05/07 05:50:45;;;;;;;5.20;1.85;;;;;;;;;;5066717;28;20094;-71
2021/05/07 05:53:11;;;;;;;4.70;1.80;;;;;;;;;;5051592;28;20045;-71
2021/05/07 05:55:38;;;;;;;4.60;1.70;;;;;;;;;;5051512;28;20464;-71
2021/05/07 05:58:04;;;;;;;5.95;2.03;;;;;;;;;;5066305;28;20036;-72
2021/05/07 06:00:30;;;;;;;5.28;1.67;;;;;;;;;;5051396;28;20032;-78
2021/05/07 06:02:57;;;;;;;8.48;2.30;;;;;;;;;;5070155;28;20052;-76
2021/05/07 06:05:23;;;;;;;5.38;2.03;;;;;;;;;;5057578;28;20039;-72
2021/05/07 06:07:49;;;;;;;5.85;2.20;;;;;;;;;;5051437;28;20028;-76
2021/05/07 06:10:15;;;;;;;5.78;2.40;;;;;;;;;;5051634;28;20100;-71
2021/05/07 06:12:43;;;;;;;6.65;2.20;;;;;;;;;;5049936;28;20436;-71
2021/05/07 06:15:09;;;;;;;6.47;2.45;;;;;;;;;;5042811;28;20021;-70
2021/05/07 06:17:35;;;;;;;7.97;1.92;;;;;;;;;;5050964;28;20079;-71
2021/05/07 06:20:04;;;;;;;6.47;2.70;;;;;;;;;;5051065;28;20036;-72
2021/05/07 06:22:31;;;;;;;6.22;2.45;;;;;;;;;;5051319;28;20106;-73
2021/05/07 06:24:57;;;;;;;6.40;2.75;;;;;;;;;;5049698;28;20115;-77
2021/05/07 06:27:23;;;;;;;6.55;2.33;;;;;;;;;;5051298;28;20035;-73
2021/05/07 06:29:49;;;;;;;5.00;1.98;;;;;;;;;;5051254;28;20065;-71
2021/05/07 06:32:15;;;;;;;3.25;2.33;;;;;;;;;;5051004;28;20060;-69
2021/05/07 06:34:41;;;;;;;4.90;1.88;;;;;;;;;;5060813;28;20021;-70
2021/05/07 06:37:07;;;;;;;6.97;1.85;;;;;;;;;;5062027;28;20033;-74
2021/05/07 06:39:33;;;;;;;4.53;2.20;;;;;;;;;;5050140;28;20025;-71
2021/05/07 06:42:00;;;;;;;7.07;2.10;;;;;;;;;;5049651;28;20075;-71
2021/05/07 06:44:26;;;;;;;6.18;2.08;;;;;;;;;;5049341;28;20598;-73
2021/05/07 06:46:52;;;;;;;5.57;1.63;;;;;;;;;;5051105;28;20065;-71
2021/05/07 06:49:18;;;;;;;6.78;2.20;;;;;;;;;;5049314;28;20471;-74
2021/05/07 06:51:45;;;;;;;7.28;2.50;;;;;;;;;;5050610;28;20374;-70
2021/05/07 06:54:11;;;;;;;6.00;2.60;;;;;;;;;;5052024;28;20059;-69
2021/05/07 06:56:37;;;;;;;4.57;2.03;;;;;;;;;;5054801;28;20476;-71
2021/05/07 06:59:06;;;;;;;5.97;2.00;;;;;;;;;;5055274;28;20113;-72
2021/05/07 07:01:32;;;;;;;5.38;1.83;;;;;;;;;;5054677;28;20127;-72
2021/05/07 07:03:58;;;;;;;7.25;4.15;;;;;;;;;;5053554;28;20055;-71
2021/05/07 07:06:24;;;;;;;10.60;4.80;;;;;;;;;;5053404;28;20106;-75
2021/05/07 07:08:51;;;;;;;7.25;2.80;;;;;;;;;;5054872;28;20029;-76
2021/05/07 07:11:17;;;;;;;6.68;3.33;;;;;;;;;;5054354;28;20021;-73
2021/05/07 07:13:44;;;;;;;12.48;6.57;;;;;;;;;;5053248;28;20400;-75
2021/05/07 07:16:10;;;;;;;19.00;3.40;;;;;;;;;;5064605;28;20452;-72
2021/05/07 07:18:37;;;;;;;7.68;3.53;;;;;;;;;;5055016;28;20122;-72
2021/05/07 07:21:03;;;;;;;7.63;2.80;;;;;;;;;;5054512;28;20025;-72
2021/05/07 07:23:29;;;;;;;9.38;3.03;;;;;;;;;;5053979;28;20571;-73
2021/05/07 07:25:55;;;;;;;8.40;2.60;;;;;;;;;;5053083;28;20504;-77
2021/05/07 07:28:21;;;;;;;7.18;2.13;;;;;;;;;;5054473;28;20028;-76
2021/05/07 07:30:47;;;;;;;6.72;3.50;;;;;;;;;;5054452;28;20032;-74
2021/05/07 07:33:14;;;;;;;6.22;2.78;;;;;;;;;;5053670;28;20507;-73
2021/05/07 07:35:40;;;;;;;11.85;3.03;;;;;;;;;;5054459;28;20481;-74
2021/05/07 07:38:06;;;;;;;7.45;2.80;;;;;;;;;;5055400;28;20138;-79
2021/05/07 07:40:32;;;;;;;6.90;3.00;;;;;;;;;;5053269;28;20032;-78
2021/05/07 07:42:59;;;;;;;6.53;2.30;;;;;;;;;;5051160;28;20052;-78
2021/05/07 07:45:25;;;;;;;4.72;2.60;;;;;;;;;;5051172;28;20701;-78
2021/05/07 07:47:51;;;;;;;8.55;3.30;;;;;;;;;;5051075;28;20480;-72
2021/05/07 07:50:17;;;;;;;10.68;2.40;;;;;;;;;;5054078;28;20060;-78
2021/05/07 07:52:43;;;;;;;6.88;2.10;;;;;;;;;;5054044;28;20041;-73
2021/05/07 07:55:09;;;;;;;7.70;2.38;;;;;;;;;;5054085;28;20021;-78
2021/05/07 07:57:35;;;;;;;4.65;1.98;;;;;;;;;;5053718;28;20086;-75
2021/05/07 08:00:02;;;;;;;8.00;2.53;;;;;;;;;;5052604;28;20033;-77
2021/05/07 08:02:29;;;;;;;6.43;2.15;;;;;;;;;;5053498;28;20385;-77
2021/05/07 08:04:55;;;;;;;6.10;2.13;;;;;;;;;;5053453;28;20017;-78
2021/05/07 08:07:21;;;;;;;7.72;2.42;;;;;;;;;;5052477;28;20031;-76
2021/05/07 08:09:48;;;;;;;6.47;1.92;;;;;;;;;;5053685;28;20017;-78
2021/05/07 08:12:14;;;;;;;10.05;2.47;;;;;;;;;;5053523;28;20033;-71
2021/05/07 08:14:40;;;;;;;10.85;2.20;;;;;;;;;;5053565;28;20025;-71
2021/05/07 08:17:08;;;;;;;7.05;2.60;;;;;;;;;;5053557;28;20033;-75
2021/05/07 08:19:34;;;;;;;7.97;2.15;;;;;;;;;;5052199;28;20021;-78
2021/05/07 08:22:00;;;;;;;5.38;2.25;;;;;;;;;;5051726;28;20055;-72
2021/05/07 08:24:27;;;;;;;7.63;2.45;;;;;;;;;;5053188;28;20550;-74
2021/05/07 08:26:53;;;;;;;6.90;2.50;;;;;;;;;;5053189;28;20033;-73
2021/05/07 08:29:19;;;;;;;7.75;3.00;;;;;;;;;;5053518;28;20025;-76
2021/05/07 08:31:46;;;;;;;4.70;2.33;;;;;;;;;;5051491;28;20037;-70
2021/05/07 08:34:16;;;;;;;6.53;2.40;;;;;;;;;;5051609;28;20366;-72
2021/05/07 08:36:42;;;;;;;7.45;2.70;;;;;;;;;;5053258;28;20425;-79
2021/05/07 08:39:08;;;;;;;6.78;2.33;;;;;;;;;;5053016;28;20033;-81
2021/05/07 08:41:34;;;;;;;6.57;2.72;;;;;;;;;;5053015;28;20136;-74
2021/05/07 08:44:00;;;;;;;5.32;2.03;;;;;;;;;;5051590;28;20513;-79
2021/05/07 08:46:26;;;;;;;6.00;2.50;;;;;;;;;;5051642;28;20316;-73
2021/05/07 08:48:53;;;;;;;7.40;2.08;;;;;;;;;;5052924;28;20044;-78
2021/05/07 08:51:19;;;;;;;5.82;2.20;;;;;;;;;;5052334;28;20431;-80
2021/05/07 08:53:45;;;;;;;3.97;1.77;;;;;;;;;;5052714;28;20048;-80
2021/05/07 08:56:11;;;;;;;7.65;1.92;;;;;;;;;;5051737;28;20021;-77
2021/05/07 08:58:38;;;;;;;6.75;2.28;;;;;;;;;;5051553;28;20032;-75
2021/05/07 09:01:04;;;;;;;4.25;2.00;;;;;;;;;;5052301;28;20029;-77
2021/05/07 09:03:40;;;;;;;6.03;2.13;;;;;;;;;;5052312;28;20029;-70
2021/05/07 09:06:24;;;;;;;9.70;2.42;;;;;;;;;;5052535;28;20049;-78
2021/05/07 09:08:51;;;;;;;7.55;2.80;;;;;;;;;;5052284;28;20025;-76
2021/05/07 09:11:18;;;;;;;9.65;1.90;;;;;;;;;;5052017;28;20037;-78
2021/05/07 09:13:44;;;;;;;6.72;2.45;;;;;;;;;;5052537;28;20040;-77
2021/05/07 09:16:11;;;;;;;5.90;1.98;;;;;;;;;;5051234;28;20429;-78
2021/05/07 09:18:47;;;;;;;5.60;1.80;;;;;;;;;;5052160;28;20029;-76
2021/05/07 09:21:14;;;;;;;4.20;1.92;;;;;;;;;;5052213;28;20021;-76
2021/05/07 09:23:41;;;;;;;6.93;1.63;;;;;;;;;;5051568;28;20102;-78
2021/05/07 09:26:08;;;;;;;7.28;1.70;;;;;;;;;;5033226;28;20380;-72
2021/05/07 09:28:34;;;;;;;3.03;1.52;;;;;;;;;;5051563;28;20039;-77
2021/05/07 09:31:11;;;;;;;5.82;1.70;;;;;;;;;;5051262;28;20596;-73
2021/05/07 09:33:41;;;;;;;6.15;1.77;;;;;;;;;;5051650;28;20116;-77
2021/05/07 09:36:07;;;;;;;7.05;2.20;;;;;;;;;;5051819;28;20025;-77
2021/05/07 09:38:35;;;;;;;7.22;1.77;;;;;;;;;;5051501;28;20081;-76
2021/05/07 09:41:01;;;;;;;4.80;1.70;;;;;;;;;;5051328;28;20029;-77
2021/05/07 09:43:29;;;;;;;5.90;1.70;;;;;;;;;;5051196;28;20032;-76
2021/05/07 09:45:56;;;;;;;5.10;2.30;;;;;;;;;;5051291;28;20063;-76
2021/05/07 09:48:26;;;;;;;5.07;2.10;;;;;;;;;;5033084;28;20055;-75
2021/05/07 09:51:03;;;;;;;3.72;1.65;;;;;;;;;;5051235;28;20100;-78
2021/05/07 09:53:38;;;;;;;5.28;1.45;;;;;;;;;;5051107;28;20036;-77
2021/05/07 09:56:11;;;;;;;5.93;1.95;;;;;;;;;;5051168;28;20100;-79
2021/05/07 09:58:37;;;;;;;5.63;1.90;;;;;;;;;;5051103;28;20032;-73
2021/05/07 10:01:04;;;;;;;7.18;1.90;;;;;;;;;;5051028;28;20029;-74
2021/05/07 10:03:30;;;;;;;5.95;2.00;;;;;;;;;;5051109;28;20147;-74
2021/05/07 10:05:56;;;;;;;6.85;2.35;;;;;;;;;;5051179;28;20028;-72
2021/05/07 10:08:22;;;;;;;9.18;2.78;;;;;;;;;;5032999;28;20033;-75
2021/05/07 10:10:56;;;;;;;6.43;2.50;;;;;;;;;;5050963;28;20544;-73
2021/05/07 10:13:30;;;;;;;5.22;1.88;;;;;;;;;;5050930;28;20045;-75
2021/05/07 10:16:03;;;;;;;6.47;1.90;;;;;;;;;;5050671;28;20017;-75
2021/05/07 10:18:31;;;;;;;6.32;2.28;;;;;;;;;;5050641;28;20029;-77
2021/05/07 10:21:01;;;;;;;4.80;2.05;;;;;;;;;;5050806;28;20021;-71
2021/05/07 10:23:27;;;;;;;6.60;1.77;;;;;;;;;;5050907;28;20029;-77
2021/05/07 10:25:56;;;;;;;4.55;1.75;;;;;;;;;;5050129;28;20037;-71
2021/05/07 10:28:23;;;;;;;3.92;1.63;;;;;;;;;;5049456;28;20025;-77
2021/05/07 10:30:49;;;;;;;5.40;1.88;;;;;;;;;;5050824;28;20071;-79
2021/05/07 10:33:19;;;;;;;5.13;1.90;;;;;;;;;;5050348;28;20133;-76
2021/05/07 10:36:04;;;;;;;4.40;1.63;;;;;;;;;;5050174;28;20025;-77
2021/05/07 10:38:30;;;;;;;6.40;1.85;;;;;;;;;;5050620;28;20025;-78
2021/05/07 10:41:10;;;;;;;4.20;1.85;;;;;;;;;;5049805;28;20041;-72
2021/05/07 10:43:43;;;;;;;6.65;1.77;;;;;;;;;;5050592;28;20048;-71
2021/05/07 10:46:23;;;;;;;4.68;1.98;;;;;;;;;;5032316;28;20036;-72
2021/05/07 10:48:53;;;;;;;4.22;1.83;;;;;;;;;;5050542;28;20056;-72
2021/05/07 10:51:19;;;;;;;3.95;1.90;;;;;;;;;;5050237;28;20025;-79
2021/05/07 10:53:45;;;;;;;6.65;1.80;;;;;;;;;;5050716;28;20036;-79
2021/05/07 10:56:32;;;;;;;3.42;1.85;;;;;;;;;;5050859;28;20047;-79
2021/05/07 10:58:58;;;;;;;4.03;1.70;;;;;;;;;;5050479;28;20053;-76
2021/05/07 11:01:28;;;;;;;3.95;1.70;;;;;;;;;;5050272;28;20083;-76
2021/05/07 11:04:00;;;;;;;5.95;1.83;;;;;;;;;;5050438;28;20076;-79
2021/05/07 11:06:30;;;;;;;5.25;2.00;;;;;;;;;;5050431;28;20028;-75
2021/05/07 11:08:57;;;;;;;5.57;1.80;;;;;;;;;;5050510;28;20124;-72
2021/05/07 11:11:23;;;;;;;5.88;2.17;;;;;;;;;;5049966;28;20043;-74
2021/05/07 11:13:49;;;;;;;4.13;1.75;;;;;;;;;;5050255;28;20028;-78
2021/05/07 11:16:15;;;;;;;3.72;1.70;;;;;;;;;;5031991;28;20109;-76
2021/05/07 11:18:46;;;;;;;6.65;1.92;;;;;;;;;;5031848;28;20069;-72
2021/05/07 11:21:13;;;;;;;5.38;1.48;;;;;;;;;;5049982;28;20055;-73
2021/05/07 11:23:39;;;;;;;5.95;2.00;;;;;;;;;;5032165;28;20439;-76
2021/05/07 11:26:06;;;;;;;5.95;2.25;;;;;;;;;;5050037;28;20033;-73
2021/05/07 11:28:42;;;;;;;4.40;1.75;;;;;;;;;;5050019;28;20017;-78
2021/05/07 11:31:09;;;;;;;4.78;2.40;;;;;;;;;;5049872;28;20032;-72
2021/05/07 11:33:35;;;;;;;5.45;1.70;;;;;;;;;;5049825;28;20132;-78
2021/05/07 11:36:08;;;;;;;6.95;1.67;;;;;;;;;;5047759;28;20040;-72
2021/05/07 11:38:35;;;;;;;5.65;1.90;;;;;;;;;;5049407;28;20048;-72
2021/05/07 11:41:01;;;;;;;5.75;1.75;;;;;;;;;;5053035;28;20021;-79
2021/05/07 11:43:28;;;;;;;4.15;1.80;;;;;;;;;;5053618;28;20024;-74
2021/05/07 11:46:07;;;;;;;5.03;2.10;;;;;;;;;;5053637;28;20029;-75
2021/05/07 11:48:34;;;;;;;4.05;1.67;;;;;;;;;;5035615;28;20068;-78
2021/05/07 11:51:07;;;;;;;3.60;1.67;;;;;;;;;;5053509;28;20028;-78
2021/05/07 11:53:36;;;;;;;6.35;2.00;;;;;;;;;;5053220;28;20036;-76
2021/05/07 11:56:03;;;;;;;5.32;1.83;;;;;;;;;;5053178;28;20029;-77
2021/05/07 11:58:39;;;;;;;4.95;1.50;;;;;;;;;;5052866;28;20073;-75
2021/05/07 12:01:05;;;;;;;5.78;1.58;;;;;;;;;;5052898;28;20477;-76
2021/05/07 12:03:42;;;;;;;3.58;1.70;;;;;;;;;;5053199;28;20037;-77
2021/05/07 12:06:20;;;;;;;6.60;1.60;;;;;;;;;;5053152;28;20049;-79
2021/05/07 12:08:46;;;;;;;5.03;1.70;;;;;;;;;;5053221;28;20029;-78
2021/05/07 12:11:13;;;;;;;5.57;2.28;;;;;;;;;;5052232;28;20131;-74
2021/05/07 12:13:40;;;;;;;4.82;1.50;;;;;;;;;;5052490;28;20041;-75
2021/05/07 12:16:06;;;;;;;5.50;2.20;;;;;;;;;;5052280;28;20044;-79
2021/05/07 12:18:34;;;;;;;5.20;1.75;;;;;;;;;;5052562;28;20100;-77
2021/05/07 12:21:01;;;;;;;4.93;1.90;;;;;;;;;;5052794;28;20028;-76
2021/05/07 12:23:39;;;;;;;4.85;1.50;;;;;;;;;;5052295;28;20432;-75
2021/05/07 12:26:05;;;;;;;5.55;2.00;;;;;;;;;;5052849;28;20052;-76
2021/05/07 12:28:31;;;;;;;4.28;1.80;;;;;;;;;;5052700;28;20029;-77
2021/05/07 12:30:58;;;;;;;3.53;1.90;;;;;;;;;;5052264;28;20040;-77
2021/05/07 12:33:25;;;;;;;8.48;2.05;;;;;;;;;;5052491;28;20041;-77
2021/05/07 12:35:52;;;;;;;4.35;1.90;;;;;;;;;;5034810;28;20174;-78
2021/05/07 12:38:25;;;;;;;4.70;1.80;;;;;;;;;;5052685;28;20086;-76
2021/05/07 12:40:52;;;;;;;7.30;2.83;;;;;;;;;;5034641;28;20029;-78
2021/05/07 12:43:18;;;;;;;5.65;2.28;;;;;;;;;;5034198;28;20037;-76
2021/05/07 12:45:48;;;;;;;7.68;2.30;;;;;;;;;;5052621;28;20037;-75
2021/05/07 12:48:15;;;;;;;4.55;2.30;;;;;;;;;;5049031;28;20060;-78
2021/05/07 12:50:44;;;;;;;7.10;2.53;;;;;;;;;;5034322;28;20037;-78
2021/05/07 12:53:11;;;;;;;4.60;2.10;;;;;;;;;;5051781;28;20041;-75
2021/05/07 12:55:38;;;;;;;7.07;2.03;;;;;;;;;;5052414;28;20025;-72
2021/05/07 12:58:04;;;;;;;5.00;1.67;;;;;;;;;;5052208;28;20037;-72
2021/05/07 13:00:31;;;;;;;4.65;1.80;;;;;;;;;;5034200;28;20021;-75
2021/05/07 13:02:57;;;;;;;3.05;1.70;;;;;;;;;;5051753;28;20128;-78
2021/05/07 13:05:23;;;;;;;5.57;2.00;;;;;;;;;;5051726;28;20032;-75
2021/05/07 13:07:50;;;;;;;6.55;2.40;;;;;;;;;;5052064;28;20025;-76
2021/05/07 13:10:16;;;;;;;8.25;3.03;;;;;;;;;;5052082;28;20032;-72
2021/05/07 13:12:42;;;;;;;3.35;1.98;;;;;;;;;;5051419;28;20044;-76
2021/05/07 13:15:08;;;;;;;4.95;2.10;;;;;;;;;;5051701;28;20029;-79
2021/05/07 13:17:34;;;;;;;8.90;2.22;;;;;;;;;;5051676;28;20028;-70
2021/05/07 13:20:00;;;;;;;3.88;1.98;;;;;;;;;;5051715;28;20025;-78
2021/05/07 13:22:27;;;;;;;6.15;2.58;;;;;;;;;;5051512;28;20370;-77
2021/05/07 13:24:53;;;;;;;6.93;2.40;;;;;;;;;;5051767;28;20036;-73
2021/05/07 13:27:19;;;;;;;4.65;1.80;;;;;;;;;;5051275;28;20028;-73
2021/05/07 13:29:45;;;;;;;6.13;1.90;;;;;;;;;;5051562;28;20080;-78
2021/05/07 13:32:13;;;;;;;5.85;2.13;;;;;;;;;;5051201;28;20053;-72
2021/05/07 13:34:39;;;;;;;4.57;1.98;;;;;;;;;;5051569;28;20024;-69
2021/05/07 13:37:06;;;;;;;7.13;1.88;;;;;;;;;;5051852;28;20472;-77
2021/05/07 13:39:32;;;;;;;4.40;1.95;;;;;;;;;;5051324;28;20102;-70
2021/05/07 13:41:58;;;;;;;3.38;1.48;;;;;;;;;;5033184;28;20031;-79
2021/05/07 13:44:24;;;;;;;5.82;1.70;;;;;;;;;;5033350;28;20039;-75
2021/05/07 13:46:50;;;;;;;3.63;1.52;;;;;;;;;;5032822;28;20481;-70
2021/05/07 13:49:16;;;;;;;4.47;1.60;;;;;;;;;;5051236;28;20414;-77
2021/05/07 13:51:42;;;;;;;4.03;1.63;;;;;;;;;;5051218;28;20389;-73
2021/05/07 13:54:08;;;;;;;5.53;1.60;;;;;;;;;;5051164;28;20043;-77
2021/05/07 13:56:34;;;;;;;6.00;3.13;;;;;;;;;;5051290;28;20370;-76
2021/05/07 13:59:00;;;;;;;3.72;1.85;;;;;;;;;;5051196;28;20031;-74
2021/05/07 14:01:27;;;;;;;7.57;1.98;;;;;;;;;;5051131;28;20087;-73
2021/05/07 14:03:53;;;;;;;5.65;1.90;;;;;;;;;;5032977;28;20033;-78
2021/05/07 14:06:20;;;;;;;9.10;2.78;;;;;;;;;;5051008;28;20361;-76
2021/05/07 14:08:46;;;;;;;6.72;2.42;;;;;;;;;;5050927;28;20067;-69
2021/05/07 14:11:12;;;;;;;8.35;2.95;;;;;;;;;;5051123;28;20426;-70
2021/05/07 14:13:38;;;;;;;7.68;3.25;;;;;;;;;;5050669;28;20041;-72
2021/05/07 14:16:04;;;;;;;6.10;2.90;;;;;;;;;;5050439;28;20025;-71
2021/05/07 14:18:31;;;;;;;8.40;3.03;;;;;;;;;;5032538;28;20119;-78
2021/05/07 14:20:57;;;;;;;5.50;3.05;;;;;;;;;;5050866;28;20013;-70
2021/05/07 14:23:23;;;;;;;11.10;3.05;;;;;;;;;;5033089;28;20029;-75
2021/05/07 14:25:49;;;;;;;12.15;3.45;;;;;;;;;;5032676;28;20670;-78
2021/05/07 14:28:15;;;;;;;7.68;3.13;;;;;;;;;;5050494;28;20055;-78
2021/05/07 14:30:41;;;;;;;10.48;3.28;;;;;;;;;;5050555;28;20385;-75
2021/05/07 14:33:10;;;;;;;7.82;3.17;;;;;;;;;;5050182;28;20045;-73
2021/05/07 14:35:36;;;;;;;8.45;2.97;;;;;;;;;;5050431;28;20023;-76
2021/05/07 14:38:02;;;;;;;8.05;3.60;;;;;;;;;;5050608;28;20032;-76
2021/05/07 14:40:29;;;;;;;10.35;3.13;;;;;;;;;;5033024;28;20040;-75
2021/05/07 14:42:55;;;;;;;7.75;3.53;;;;;;;;;;5050689;28;20100;-70
2021/05/07 14:45:23;;;;;;;11.40;3.67;;;;;;;;;;5050644;28;20021;-72